sensor_id;sensor_type;location;lat;lon;timestamp;P1;durP1;ratioP1;P2;durP2;ratioP2
76612;SDS011;65507;48.454;-2.058;2023-04-25T00:00:24;14.75;;;3.60;;
76612;SDS011;65507;48.454;-2.058;2023-04-25T00:02:50;12.90;;;3.38;;
76612;SDS011;65507;48.454;-2.058;2023-04-25T00:05:16;5.15;;;2.88;;
76612;SDS011;65507;48.454;-2.058;2023-04-25T00:07:42;11.80;;;3.17;;
76612;SDS011;65507;48.454;-2.058;2023-04-25T00:10:08;9.50;;;3.10;;
76612;SDS011;65507;48.454;-2.058;2023-04-25T00:12:36;9.05;;;2.95;;
76612;SDS011;65507;48.454;-2.058;2023-04-25T00:15:02;7.25;;;2.70;;
76612;SDS011;65507;48.454;-2.058;2023-04-25T00:17:28;10.85;;;3.60;;
76612;SDS011;65507;48.454;-2.058;2023-04-25T00:19:54;9.48;;;2.92;;
76612;SDS011;65507;48.454;-2.058;2023-04-25T00:22:21;10.52;;;3.30;;
76612;SDS011;65507;48.454;-2.058;2023-04-25T00:24:46;8.50;;;3.50;;
76612;SDS011;65507;48.454;-2.058;2023-04-25T00:27:12;6.93;;;2.72;;
76612;SDS011;65507;48.454;-2.058;2023-04-25T00:29:38;7.18;;;2.97;;
76612;SDS011;65507;48.454;-2.058;2023-04-25T00:32:04;13.98;;;3.60;;
76612;SDS011;65507;48.454;-2.058;2023-04-25T00:34:29;11.68;;;3.35;;
76612;SDS011;65507;48.454;-2.058;2023-04-25T00:36:55;10.70;;;3.35;;
76612;SDS011;65507;48.454;-2.058;2023-04-25T00:39:21;6.20;;;2.90;;
76612;SDS011;65507;48.454;-2.058;2023-04-25T00:41:47;10.93;;;3.45;;
76612;SDS011;65507;48.454;-2.058;2023-04-25T00:44:13;7.70;;;2.53;;
76612;SDS011;65507;48.454;-2.058;2023-04-25T00:46:42;10.90;;;3.42;;
76612;SDS011;65507;48.454;-2.058;2023-04-25T00:49:07;10.95;;;3.58;;
76612;SDS011;65507;48.454;-2.058;2023-04-25T00:51:33;7.90;;;2.88;;
76612;SDS011;65507;48.454;-2.058;2023-04-25T00:54:00;9.70;;;3.13;;
76612;SDS011;65507;48.454;-2.058;2023-04-25T00:56:26;10.65;;;3.38;;
76612;SDS011;65507;48.454;-2.058;2023-04-25T00:58:53;13.27;;;3.10;;
76612;SDS011;65507;48.454;-2.058;2023-04-25T01:01:21;10.75;;;3.33;;
76612;SDS011;65507;48.454;-2.058;2023-04-25T01:03:47;7.47;;;2.85;;
76612;SDS011;65507;48.454;-2.058;2023-04-25T01:06:15;9.18;;;2.78;;
76612;SDS011;65507;48.454;-2.058;2023-04-25T01:08:41;10.13;;;3.28;;
76612;SDS011;65507;48.454;-2.058;2023-04-25T01:11:06;7.13;;;2.95;;
76612;SDS011;65507;48.454;-2.058;2023-04-25T01:13:32;10.60;;;3.42;;
76612;SDS011;65507;48.454;-2.058;2023-04-25T01:15:59;12.30;;;3.10;;
76612;SDS011;65507;48.454;-2.058;2023-04-25T01:18:25;9.82;;;3.47;;
76612;SDS011;65507;48.454;-2.058;2023-04-25T01:20:52;10.57;;;2.90;;
76612;SDS011;65507;48.454;-2.058;2023-04-25T01:23:21;9.82;;;3.17;;
76612;SDS011;65507;48.454;-2.058;2023-04-25T01:25:48;14.18;;;3.85;;
76612;SDS011;65507;48.454;-2.058;2023-04-25T01:28:14;14.75;;;3.42;;
76612;SDS011;65507;48.454;-2.058;2023-04-25T01:30:41;12.88;;;3.40;;
76612;SDS011;65507;48.454;-2.058;2023-04-25T01:33:08;9.65;;;3.33;;
76612;SDS011;65507;48.454;-2.058;2023-04-25T01:35:34;10.07;;;3.25;;
76612;SDS011;65507;48.454;-2.058;2023-04-25T01:37:59;9.18;;;3.00;;
76612;SDS011;65507;48.454;-2.058;2023-04-25T01:40:25;12.43;;;3.50;;
76612;SDS011;65507;48.454;-2.058;2023-04-25T01:42:53;9.90;;;3.25;;
76612;SDS011;65507;48.454;-2.058;2023-04-25T01:45:19;6.80;;;2.90;;
76612;SDS011;65507;48.454;-2.058;2023-04-25T01:47:45;7.50;;;3.10;;
76612;SDS011;65507;48.454;-2.058;2023-04-25T01:50:14;11.90;;;3.15;;
76612;SDS011;65507;48.454;-2.058;2023-04-25T01:52:41;10.77;;;3.42;;
76612;SDS011;65507;48.454;-2.058;2023-04-25T01:55:06;9.75;;;3.10;;
76612;SDS011;65507;48.454;-2.058;2023-04-25T01:57:32;7.25;;;2.88;;
76612;SDS011;65507;48.454;-2.058;2023-04-25T01:59:59;11.77;;;3.08;;
76612;SDS011;65507;48.454;-2.058;2023-04-25T02:02:27;6.43;;;2.80;;
76612;SDS011;65507;48.454;-2.058;2023-04-25T02:04:53;8.73;;;3.00;;
76612;SDS011;65507;48.454;-2.058;2023-04-25T02:07:21;7.30;;;2.88;;
76612;SDS011;65507;48.454;-2.058;2023-04-25T02:09:47;8.20;;;3.50;;
76612;SDS011;65507;48.454;-2.058;2023-04-25T02:12:13;11.45;;;3.03;;
76612;SDS011;65507;48.454;-2.058;2023-04-25T02:14:39;8.63;;;3.20;;
76612;SDS011;65507;48.454;-2.058;2023-04-25T02:17:04;12.65;;;3.28;;
76612;SDS011;65507;48.454;-2.058;2023-04-25T02:19:30;7.78;;;3.17;;
76612;SDS011;65507;48.454;-2.058;2023-04-25T02:21:56;8.07;;;2.78;;
76612;SDS011;65507;48.454;-2.058;2023-04-25T02:24:23;8.33;;;3.00;;
76612;SDS011;65507;48.454;-2.058;2023-04-25T02:26:48;11.43;;;3.40;;
76612;SDS011;65507;48.454;-2.058;2023-04-25T02:29:14;7.95;;;3.00;;
76612;SDS011;65507;48.454;-2.058;2023-04-25T02:31:40;10.38;;;3.42;;
76612;SDS011;65507;48.454;-2.058;2023-04-25T02:34:06;10.15;;;3.47;;
76612;SDS011;65507;48.454;-2.058;2023-04-25T02:36:32;7.68;;;2.92;;
76612;SDS011;65507;48.454;-2.058;2023-04-25T02:38:59;12.18;;;3.70;;
76612;SDS011;65507;48.454;-2.058;2023-04-25T02:41:25;13.93;;;3.42;;
76612;SDS011;65507;48.454;-2.058;2023-04-25T02:43:51;6.60;;;3.00;;
76612;SDS011;65507;48.454;-2.058;2023-04-25T02:46:17;8.20;;;3.10;;
76612;SDS011;65507;48.454;-2.058;2023-04-25T02:48:43;8.30;;;3.47;;
76612;SDS011;65507;48.454;-2.058;2023-04-25T02:51:08;8.10;;;3.33;;
76612;SDS011;65507;48.454;-2.058;2023-04-25T02:53:34;10.75;;;3.28;;
76612;SDS011;65507;48.454;-2.058;2023-04-25T02:56:00;10.40;;;3.63;;
76612;SDS011;65507;48.454;-2.058;2023-04-25T02:58:26;12.95;;;3.55;;
76612;SDS011;65507;48.454;-2.058;2023-04-25T03:00:52;14.65;;;3.85;;
76612;SDS011;65507;48.454;-2.058;2023-04-25T03:03:17;7.47;;;3.40;;
76612;SDS011;65507;48.454;-2.058;2023-04-25T03:05:46;14.48;;;3.42;;
76612;SDS011;65507;48.454;-2.058;2023-04-25T03:08:15;9.43;;;3.45;;
76612;SDS011;65507;48.454;-2.058;2023-04-25T03:10:42;9.20;;;3.20;;
76612;SDS011;65507;48.454;-2.058;2023-04-25T03:13:08;10.23;;;3.42;;
76612;SDS011;65507;48.454;-2.058;2023-04-25T03:15:34;11.38;;;3.88;;
76612;SDS011;65507;48.454;-2.058;2023-04-25T03:18:01;11.55;;;3.40;;
76612;SDS011;65507;48.454;-2.058;2023-04-25T03:20:27;10.25;;;3.58;;
76612;SDS011;65507;48.454;-2.058;2023-04-25T03:22:52;13.63;;;3.97;;
76612;SDS011;65507;48.454;-2.058;2023-04-25T03:25:18;11.50;;;4.38;;
76612;SDS011;65507;48.454;-2.058;2023-04-25T03:27:44;10.38;;;3.90;;
76612;SDS011;65507;48.454;-2.058;2023-04-25T03:30:10;11.02;;;3.85;;
76612;SDS011;65507;48.454;-2.058;2023-04-25T03:32:36;7.93;;;3.65;;
76612;SDS011;65507;48.454;-2.058;2023-04-25T03:35:01;14.30;;;4.18;;
76612;SDS011;65507;48.454;-2.058;2023-04-25T03:37:27;9.50;;;3.75;;
76612;SDS011;65507;48.454;-2.058;2023-04-25T03:39:53;10.27;;;3.35;;
76612;SDS011;65507;48.454;-2.058;2023-04-25T03:42:18;9.80;;;4.20;;
76612;SDS011;65507;48.454;-2.058;2023-04-25T03:44:44;10.02;;;3.88;;
76612;SDS011;65507;48.454;-2.058;2023-04-25T03:47:10;8.65;;;4.07;;
76612;SDS011;65507;48.454;-2.058;2023-04-25T03:49:36;11.80;;;3.80;;
76612;SDS011;65507;48.454;-2.058;2023-04-25T03:52:02;9.00;;;4.07;;
76612;SDS011;65507;48.454;-2.058;2023-04-25T03:54:27;9.45;;;3.67;;
76612;SDS011;65507;48.454;-2.058;2023-04-25T03:56:53;7.75;;;3.85;;
76612;SDS011;65507;48.454;-2.058;2023-04-25T03:59:19;8.52;;;4.07;;
76612;SDS011;65507;48.454;-2.058;2023-04-25T04:01:44;13.00;;;4.40;;
76612;SDS011;65507;48.454;-2.058;2023-04-25T04:04:10;11.98;;;4.18;;
76612;SDS011;65507;48.454;-2.058;2023-04-25T04:06:36;12.90;;;4.53;;
76612;SDS011;65507;48.454;-2.058;2023-04-25T04:09:02;7.70;;;3.33;;
76612;SDS011;65507;48.454;-2.058;2023-04-25T04:11:28;9.10;;;4.30;;
76612;SDS011;65507;48.454;-2.058;2023-04-25T04:13:54;8.18;;;3.55;;
76612;SDS011;65507;48.454;-2.058;2023-04-25T04:16:19;9.20;;;4.13;;
76612;SDS011;65507;48.454;-2.058;2023-04-25T04:18:45;8.27;;;4.05;;
76612;SDS011;65507;48.454;-2.058;2023-04-25T04:21:11;12.80;;;4.57;;
76612;SDS011;65507;48.454;-2.058;2023-04-25T04:23:37;9.70;;;3.88;;
76612;SDS011;65507;48.454;-2.058;2023-04-25T04:26:02;7.90;;;4.30;;
76612;SDS011;65507;48.454;-2.058;2023-04-25T04:28:28;10.95;;;4.10;;
76612;SDS011;65507;48.454;-2.058;2023-04-25T04:30:54;13.63;;;3.90;;
76612;SDS011;65507;48.454;-2.058;2023-04-25T04:33:20;14.13;;;4.18;;
76612;SDS011;65507;48.454;-2.058;2023-04-25T04:35:46;8.60;;;4.07;;
76612;SDS011;65507;48.454;-2.058;2023-04-25T04:38:12;13.50;;;3.70;;
76612;SDS011;65507;48.454;-2.058;2023-04-25T04:40:40;10.55;;;4.03;;
76612;SDS011;65507;48.454;-2.058;2023-04-25T04:43:08;7.90;;;3.88;;
76612;SDS011;65507;48.454;-2.058;2023-04-25T04:48:04;10.90;;;4.85;;
76612;SDS011;65507;48.454;-2.058;2023-04-25T04:50:32;11.68;;;4.15;;
76612;SDS011;65507;48.454;-2.058;2023-04-25T04:52:58;10.15;;;4.03;;
76612;SDS011;65507;48.454;-2.058;2023-04-25T04:55:25;6.35;;;3.45;;
76612;SDS011;65507;48.454;-2.058;2023-04-25T04:57:50;14.68;;;4.50;;
76612;SDS011;65507;48.454;-2.058;2023-04-25T05:00:16;8.98;;;4.05;;
76612;SDS011;65507;48.454;-2.058;2023-04-25T05:02:42;9.07;;;3.80;;
76612;SDS011;65507;48.454;-2.058;2023-04-25T05:05:07;10.80;;;4.90;;
76612;SDS011;65507;48.454;-2.058;2023-04-25T05:07:36;8.65;;;3.95;;
76612;SDS011;65507;48.454;-2.058;2023-04-25T05:10:02;10.13;;;4.30;;
76612;SDS011;65507;48.454;-2.058;2023-04-25T05:12:28;6.32;;;3.90;;
76612;SDS011;65507;48.454;-2.058;2023-04-25T05:14:54;10.07;;;4.25;;
76612;SDS011;65507;48.454;-2.058;2023-04-25T05:17:19;8.23;;;3.90;;
76612;SDS011;65507;48.454;-2.058;2023-04-25T05:19:45;9.55;;;4.50;;
76612;SDS011;65507;48.454;-2.058;2023-04-25T05:22:11;6.10;;;4.28;;
76612;SDS011;65507;48.454;-2.058;2023-04-25T05:24:36;10.63;;;4.65;;
76612;SDS011;65507;48.454;-2.058;2023-04-25T05:27:02;10.63;;;4.32;;
76612;SDS011;65507;48.454;-2.058;2023-04-25T05:29:27;8.00;;;4.10;;
76612;SDS011;65507;48.454;-2.058;2023-04-25T05:31:53;12.60;;;4.68;;
76612;SDS011;65507;48.454;-2.058;2023-04-25T05:34:19;10.20;;;3.85;;
76612;SDS011;65507;48.454;-2.058;2023-04-25T05:36:44;7.45;;;3.78;;
76612;SDS011;65507;48.454;-2.058;2023-04-25T05:39:13;10.88;;;3.97;;
76612;SDS011;65507;48.454;-2.058;2023-04-25T05:41:42;8.43;;;4.57;;
76612;SDS011;65507;48.454;-2.058;2023-04-25T05:44:08;9.60;;;4.10;;
76612;SDS011;65507;48.454;-2.058;2023-04-25T05:46:34;8.93;;;4.07;;
76612;SDS011;65507;48.454;-2.058;2023-04-25T05:48:59;9.45;;;4.50;;
76612;SDS011;65507;48.454;-2.058;2023-04-25T05:51:25;6.82;;;3.92;;
76612;SDS011;65507;48.454;-2.058;2023-04-25T05:53:51;8.85;;;4.05;;
76612;SDS011;65507;48.454;-2.058;2023-04-25T05:56:16;9.77;;;4.35;;
76612;SDS011;65507;48.454;-2.058;2023-04-25T05:58:42;10.70;;;4.38;;
76612;SDS011;65507;48.454;-2.058;2023-04-25T06:01:08;8.60;;;4.22;;
76612;SDS011;65507;48.454;-2.058;2023-04-25T06:03:34;8.27;;;3.95;;
76612;SDS011;65507;48.454;-2.058;2023-04-25T06:06:00;10.52;;;4.82;;
76612;SDS011;65507;48.454;-2.058;2023-04-25T06:08:25;11.32;;;4.60;;
76612;SDS011;65507;48.454;-2.058;2023-04-25T06:10:51;10.00;;;4.53;;
76612;SDS011;65507;48.454;-2.058;2023-04-25T06:13:17;10.50;;;4.65;;
76612;SDS011;65507;48.454;-2.058;2023-04-25T06:15:42;7.95;;;4.45;;
76612;SDS011;65507;48.454;-2.058;2023-04-25T06:18:08;12.10;;;5.10;;
76612;SDS011;65507;48.454;-2.058;2023-04-25T06:20:34;13.75;;;5.28;;
76612;SDS011;65507;48.454;-2.058;2023-04-25T06:22:59;14.02;;;6.20;;
76612;SDS011;65507;48.454;-2.058;2023-04-25T06:25:28;8.50;;;4.82;;
76612;SDS011;65507;48.454;-2.058;2023-04-25T06:27:54;12.85;;;4.88;;
76612;SDS011;65507;48.454;-2.058;2023-04-25T06:30:19;7.00;;;4.68;;
76612;SDS011;65507;48.454;-2.058;2023-04-25T06:32:48;7.65;;;3.92;;
76612;SDS011;65507;48.454;-2.058;2023-04-25T06:35:14;8.65;;;3.90;;
76612;SDS011;65507;48.454;-2.058;2023-04-25T06:37:40;11.27;;;3.83;;
76612;SDS011;65507;48.454;-2.058;2023-04-25T06:40:05;11.30;;;5.00;;
76612;SDS011;65507;48.454;-2.058;2023-04-25T06:42:31;10.43;;;4.32;;
76612;SDS011;65507;48.454;-2.058;2023-04-25T06:44:57;7.65;;;4.28;;
76612;SDS011;65507;48.454;-2.058;2023-04-25T06:47:23;8.15;;;3.60;;
76612;SDS011;65507;48.454;-2.058;2023-04-25T06:49:49;7.78;;;3.75;;
76612;SDS011;65507;48.454;-2.058;2023-04-25T06:52:15;12.48;;;4.60;;
76612;SDS011;65507;48.454;-2.058;2023-04-25T06:54:42;7.15;;;3.60;;
76612;SDS011;65507;48.454;-2.058;2023-04-25T06:57:08;12.52;;;4.05;;
76612;SDS011;65507;48.454;-2.058;2023-04-25T06:59:34;6.95;;;3.42;;
76612;SDS011;65507;48.454;-2.058;2023-04-25T07:02:00;8.32;;;3.72;;
76612;SDS011;65507;48.454;-2.058;2023-04-25T07:04:25;7.88;;;2.75;;
76612;SDS011;65507;48.454;-2.058;2023-04-25T07:06:51;9.32;;;3.10;;
76612;SDS011;65507;48.454;-2.058;2023-04-25T07:09:17;4.82;;;2.88;;
76612;SDS011;65507;48.454;-2.058;2023-04-25T07:11:42;5.10;;;2.63;;
76612;SDS011;65507;48.454;-2.058;2023-04-25T07:14:08;5.60;;;2.60;;
76612;SDS011;65507;48.454;-2.058;2023-04-25T07:16:34;10.25;;;3.10;;
76612;SDS011;65507;48.454;-2.058;2023-04-25T07:18:59;9.30;;;3.13;;
76612;SDS011;65507;48.454;-2.058;2023-04-25T07:21:25;6.65;;;3.00;;
76612;SDS011;65507;48.454;-2.058;2023-04-25T07:23:51;6.53;;;2.67;;
76612;SDS011;65507;48.454;-2.058;2023-04-25T07:26:17;5.97;;;3.00;;
76612;SDS011;65507;48.454;-2.058;2023-04-25T07:28:42;7.15;;;2.83;;
76612;SDS011;65507;48.454;-2.058;2023-04-25T07:31:08;10.10;;;3.30;;
76612;SDS011;65507;48.454;-2.058;2023-04-25T07:33:34;7.75;;;3.10;;
76612;SDS011;65507;48.454;-2.058;2023-04-25T07:36:00;5.80;;;3.17;;
76612;SDS011;65507;48.454;-2.058;2023-04-25T07:38:26;13.77;;;3.17;;
76612;SDS011;65507;48.454;-2.058;2023-04-25T07:40:51;9.77;;;3.05;;
76612;SDS011;65507;48.454;-2.058;2023-04-25T07:43:17;5.85;;;3.15;;
76612;SDS011;65507;48.454;-2.058;2023-04-25T07:45:45;9.70;;;2.97;;
76612;SDS011;65507;48.454;-2.058;2023-04-25T07:48:16;6.93;;;2.35;;
76612;SDS011;65507;48.454;-2.058;2023-04-25T07:50:43;11.27;;;2.65;;
76612;SDS011;65507;48.454;-2.058;2023-04-25T07:53:09;5.88;;;2.72;;
76612;SDS011;65507;48.454;-2.058;2023-04-25T07:55:35;7.03;;;3.00;;
76612;SDS011;65507;48.454;-2.058;2023-04-25T07:58:01;5.93;;;2.20;;
76612;SDS011;65507;48.454;-2.058;2023-04-25T08:00:28;7.53;;;2.20;;
76612;SDS011;65507;48.454;-2.058;2023-04-25T08:02:54;6.05;;;2.40;;
76612;SDS011;65507;48.454;-2.058;2023-04-25T08:05:20;5.78;;;2.53;;
76612;SDS011;65507;48.454;-2.058;2023-04-25T08:07:46;6.95;;;2.05;;
76612;SDS011;65507;48.454;-2.058;2023-04-25T08:10:11;6.88;;;2.10;;
76612;SDS011;65507;48.454;-2.058;2023-04-25T08:12:37;15.15;;;2.80;;
76612;SDS011;65507;48.454;-2.058;2023-04-25T08:15:03;6.82;;;2.20;;
76612;SDS011;65507;48.454;-2.058;2023-04-25T08:17:30;6.57;;;2.50;;
76612;SDS011;65507;48.454;-2.058;2023-04-25T08:19:56;9.98;;;2.20;;
76612;SDS011;65507;48.454;-2.058;2023-04-25T08:22:22;4.20;;;2.13;;
76612;SDS011;65507;48.454;-2.058;2023-04-25T08:24:47;5.35;;;2.20;;
76612;SDS011;65507;48.454;-2.058;2023-04-25T08:27:13;4.72;;;2.33;;
76612;SDS011;65507;48.454;-2.058;2023-04-25T08:29:39;4.18;;;2.03;;
76612;SDS011;65507;48.454;-2.058;2023-04-25T08:32:05;4.75;;;1.80;;
76612;SDS011;65507;48.454;-2.058;2023-04-25T08:34:30;4.63;;;1.95;;
76612;SDS011;65507;48.454;-2.058;2023-04-25T08:36:56;4.60;;;1.98;;
76612;SDS011;65507;48.454;-2.058;2023-04-25T08:39:21;5.38;;;2.22;;
76612;SDS011;65507;48.454;-2.058;2023-04-25T08:41:47;4.28;;;1.80;;
76612;SDS011;65507;48.454;-2.058;2023-04-25T08:44:13;4.95;;;2.10;;
76612;SDS011;65507;48.454;-2.058;2023-04-25T08:46:41;4.10;;;2.00;;
76612;SDS011;65507;48.454;-2.058;2023-04-25T08:49:07;5.93;;;2.28;;
76612;SDS011;65507;48.454;-2.058;2023-04-25T08:51:37;5.95;;;2.22;;
76612;SDS011;65507;48.454;-2.058;2023-04-25T08:54:11;6.95;;;2.10;;
76612;SDS011;65507;48.454;-2.058;2023-04-25T08:56:41;4.40;;;2.17;;
76612;SDS011;65507;48.454;-2.058;2023-04-25T08:59:10;5.13;;;2.35;;
76612;SDS011;65507;48.454;-2.058;2023-04-25T09:01:37;5.85;;;2.65;;
76612;SDS011;65507;48.454;-2.058;2023-04-25T09:04:03;7.28;;;2.78;;
76612;SDS011;65507;48.454;-2.058;2023-04-25T09:06:29;8.57;;;2.63;;
76612;SDS011;65507;48.454;-2.058;2023-04-25T09:09:01;4.97;;;2.60;;
76612;SDS011;65507;48.454;-2.058;2023-04-25T09:11:32;4.28;;;2.40;;
76612;SDS011;65507;48.454;-2.058;2023-04-25T09:14:19;5.00;;;2.47;;
76612;SDS011;65507;48.454;-2.058;2023-04-25T09:19:21;4.72;;;2.30;;
76612;SDS011;65507;48.454;-2.058;2023-04-25T09:21:48;5.45;;;2.22;;
76612;SDS011;65507;48.454;-2.058;2023-04-25T09:24:14;4.32;;;2.28;;
76612;SDS011;65507;48.454;-2.058;2023-04-25T09:26:40;5.00;;;2.20;;
76612;SDS011;65507;48.454;-2.058;2023-04-25T09:29:06;5.38;;;2.42;;
76612;SDS011;65507;48.454;-2.058;2023-04-25T09:31:33;4.93;;;2.40;;
76612;SDS011;65507;48.454;-2.058;2023-04-25T09:33:59;5.15;;;2.40;;
76612;SDS011;65507;48.454;-2.058;2023-04-25T09:36:29;4.05;;;2.28;;
76612;SDS011;65507;48.454;-2.058;2023-04-25T09:38:55;5.53;;;2.60;;
76612;SDS011;65507;48.454;-2.058;2023-04-25T09:41:24;3.80;;;2.05;;
76612;SDS011;65507;48.454;-2.058;2023-04-25T09:43:50;6.35;;;2.25;;
76612;SDS011;65507;48.454;-2.058;2023-04-25T09:46:16;4.70;;;2.00;;
76612;SDS011;65507;48.454;-2.058;2023-04-25T09:51:16;4.90;;;2.22;;
76612;SDS011;65507;48.454;-2.058;2023-04-25T09:53:45;3.83;;;2.10;;
76612;SDS011;65507;48.454;-2.058;2023-04-25T09:56:15;7.97;;;2.55;;
76612;SDS011;65507;48.454;-2.058;2023-04-25T09:58:41;8.82;;;2.65;;
76612;SDS011;65507;48.454;-2.058;2023-04-25T10:01:08;9.48;;;2.40;;
76612;SDS011;65507;48.454;-2.058;2023-04-25T10:03:35;3.30;;;1.85;;
76612;SDS011;65507;48.454;-2.058;2023-04-25T10:06:07;7.53;;;2.25;;
76612;SDS011;65507;48.454;-2.058;2023-04-25T10:08:34;7.47;;;2.42;;
76612;SDS011;65507;48.454;-2.058;2023-04-25T10:11:05;6.05;;;2.45;;
76612;SDS011;65507;48.454;-2.058;2023-04-25T10:13:32;4.20;;;2.13;;
76612;SDS011;65507;48.454;-2.058;2023-04-25T10:16:00;6.57;;;2.45;;
76612;SDS011;65507;48.454;-2.058;2023-04-25T10:20:57;4.28;;;1.80;;
76612;SDS011;65507;48.454;-2.058;2023-04-25T10:23:24;3.20;;;1.98;;
76612;SDS011;65507;48.454;-2.058;2023-04-25T10:25:51;3.50;;;1.80;;
76612;SDS011;65507;48.454;-2.058;2023-04-25T10:28:18;6.40;;;2.30;;
76612;SDS011;65507;48.454;-2.058;2023-04-25T10:31:18;8.88;;;3.03;;
76612;SDS011;65507;48.454;-2.058;2023-04-25T10:33:40;5.68;;;2.70;;
76612;SDS011;65507;48.454;-2.058;2023-04-25T10:36:15;5.70;;;2.15;;
76612;SDS011;65507;48.454;-2.058;2023-04-25T10:38:44;7.05;;;2.38;;
76612;SDS011;65507;48.454;-2.058;2023-04-25T10:41:11;5.32;;;2.42;;
76612;SDS011;65507;48.454;-2.058;2023-04-25T10:43:41;4.85;;;2.30;;
76612;SDS011;65507;48.454;-2.058;2023-04-25T10:46:18;3.67;;;2.30;;
76612;SDS011;65507;48.454;-2.058;2023-04-25T10:48:56;5.90;;;2.53;;
76612;SDS011;65507;48.454;-2.058;2023-04-25T10:51:33;5.20;;;2.10;;
76612;SDS011;65507;48.454;-2.058;2023-04-25T10:54:01;6.30;;;3.22;;
76612;SDS011;65507;48.454;-2.058;2023-04-25T10:56:37;5.50;;;2.15;;
76612;SDS011;65507;48.454;-2.058;2023-04-25T11:01:39;3.30;;;2.30;;
76612;SDS011;65507;48.454;-2.058;2023-04-25T11:04:06;7.18;;;3.30;;
76612;SDS011;65507;48.454;-2.058;2023-04-25T11:09:36;5.95;;;2.60;;
76612;SDS011;65507;48.454;-2.058;2023-04-25T11:12:05;5.68;;;2.30;;
76612;SDS011;65507;48.454;-2.058;2023-04-25T11:14:33;5.30;;;2.42;;
76612;SDS011;65507;48.454;-2.058;2023-04-25T11:16:59;4.40;;;2.40;;
76612;SDS011;65507;48.454;-2.058;2023-04-25T11:19:27;5.85;;;2.60;;
76612;SDS011;65507;48.454;-2.058;2023-04-25T11:22:01;4.18;;;2.20;;
76612;SDS011;65507;48.454;-2.058;2023-04-25T11:24:32;5.20;;;2.55;;
76612;SDS011;65507;48.454;-2.058;2023-04-25T11:27:04;6.63;;;2.70;;
76612;SDS011;65507;48.454;-2.058;2023-04-25T11:29:34;3.85;;;2.40;;
76612;SDS011;65507;48.454;-2.058;2023-04-25T11:32:00;5.13;;;2.42;;
76612;SDS011;65507;48.454;-2.058;2023-04-25T11:34:30;9.82;;;5.75;;
76612;SDS011;65507;48.454;-2.058;2023-04-25T11:36:57;5.20;;;2.38;;
76612;SDS011;65507;48.454;-2.058;2023-04-25T11:39:24;4.60;;;2.20;;
76612;SDS011;65507;48.454;-2.058;2023-04-25T11:41:51;4.72;;;2.30;;
76612;SDS011;65507;48.454;-2.058;2023-04-25T11:44:17;3.88;;;2.13;;
76612;SDS011;65507;48.454;-2.058;2023-04-25T11:46:44;8.48;;;2.42;;
76612;SDS011;65507;48.454;-2.058;2023-04-25T11:49:10;3.00;;;2.27;;
76612;SDS011;65507;48.454;-2.058;2023-04-25T11:51:42;3.67;;;2.17;;
76612;SDS011;65507;48.454;-2.058;2023-04-25T11:54:12;4.22;;;2.63;;
76612;SDS011;65507;48.454;-2.058;2023-04-25T11:56:43;6.30;;;2.30;;
76612;SDS011;65507;48.454;-2.058;2023-04-25T11:59:09;2.88;;;2.00;;
76612;SDS011;65507;48.454;-2.058;2023-04-25T12:01:37;3.83;;;2.03;;
76612;SDS011;65507;48.454;-2.058;2023-04-25T12:04:14;2.60;;;1.95;;
76612;SDS011;65507;48.454;-2.058;2023-04-25T12:06:42;5.30;;;2.15;;
76612;SDS011;65507;48.454;-2.058;2023-04-25T12:09:12;5.15;;;2.22;;
76612;SDS011;65507;48.454;-2.058;2023-04-25T12:11:41;3.55;;;1.90;;
76612;SDS011;65507;48.454;-2.058;2023-04-25T12:14:11;4.40;;;2.10;;
76612;SDS011;65507;48.454;-2.058;2023-04-25T12:16:44;6.13;;;2.13;;
76612;SDS011;65507;48.454;-2.058;2023-04-25T12:19:14;5.53;;;1.90;;
76612;SDS011;65507;48.454;-2.058;2023-04-25T12:21:40;4.07;;;2.25;;
76612;SDS011;65507;48.454;-2.058;2023-04-25T12:24:39;3.20;;;1.77;;
76612;SDS011;65507;48.454;-2.058;2023-04-25T12:27:00;3.75;;;2.15;;
76612;SDS011;65507;48.454;-2.058;2023-04-25T12:29:30;7.00;;;2.17;;
76612;SDS011;65507;48.454;-2.058;2023-04-25T12:31:57;2.78;;;2.20;;
76612;SDS011;65507;48.454;-2.058;2023-04-25T12:34:24;3.93;;;2.43;;
76612;SDS011;65507;48.454;-2.058;2023-04-25T12:36:51;5.10;;;2.00;;
76612;SDS011;65507;48.454;-2.058;2023-04-25T12:44:10;4.03;;;2.37;;
76612;SDS011;65507;48.454;-2.058;2023-04-25T12:46:36;4.90;;;2.15;;
76612;SDS011;65507;48.454;-2.058;2023-04-25T12:49:03;6.85;;;2.58;;
76612;SDS011;65507;48.454;-2.058;2023-04-25T12:51:29;4.68;;;2.17;;
76612;SDS011;65507;48.454;-2.058;2023-04-25T12:53:57;27.42;;;2.88;;
76612;SDS011;65507;48.454;-2.058;2023-04-25T12:56:24;6.90;;;2.70;;
76612;SDS011;65507;48.454;-2.058;2023-04-25T12:58:50;5.95;;;2.30;;
76612;SDS011;65507;48.454;-2.058;2023-04-25T13:01:16;4.28;;;2.03;;
76612;SDS011;65507;48.454;-2.058;2023-04-25T13:03:41;7.00;;;3.78;;
76612;SDS011;65507;48.454;-2.058;2023-04-25T13:06:07;12.75;;;5.45;;
76612;SDS011;65507;48.454;-2.058;2023-04-25T13:08:33;3.70;;;2.30;;
76612;SDS011;65507;48.454;-2.058;2023-04-25T13:11:00;4.97;;;2.47;;
76612;SDS011;65507;48.454;-2.058;2023-04-25T13:13:25;4.93;;;2.20;;
76612;SDS011;65507;48.454;-2.058;2023-04-25T13:15:52;3.95;;;2.40;;
76612;SDS011;65507;48.454;-2.058;2023-04-25T13:18:18;4.05;;;2.20;;
76612;SDS011;65507;48.454;-2.058;2023-04-25T13:20:44;9.00;;;3.15;;
76612;SDS011;65507;48.454;-2.058;2023-04-25T13:23:11;4.88;;;2.50;;
76612;SDS011;65507;48.454;-2.058;2023-04-25T13:25:37;3.97;;;2.25;;
76612;SDS011;65507;48.454;-2.058;2023-04-25T13:28:02;11.43;;;6.03;;
76612;SDS011;65507;48.454;-2.058;2023-04-25T13:30:28;8.75;;;4.32;;
76612;SDS011;65507;48.454;-2.058;2023-04-25T13:32:54;5.25;;;2.92;;
76612;SDS011;65507;48.454;-2.058;2023-04-25T13:35:21;4.45;;;2.60;;
76612;SDS011;65507;48.454;-2.058;2023-04-25T13:37:47;5.22;;;2.25;;
76612;SDS011;65507;48.454;-2.058;2023-04-25T13:40:13;6.03;;;2.70;;
76612;SDS011;65507;48.454;-2.058;2023-04-25T13:42:39;5.20;;;2.83;;
76612;SDS011;65507;48.454;-2.058;2023-04-25T13:45:05;5.97;;;2.75;;
76612;SDS011;65507;48.454;-2.058;2023-04-25T13:47:31;9.45;;;3.75;;
76612;SDS011;65507;48.454;-2.058;2023-04-25T13:49:57;4.93;;;2.75;;
76612;SDS011;65507;48.454;-2.058;2023-04-25T13:52:24;3.90;;;2.37;;
76612;SDS011;65507;48.454;-2.058;2023-04-25T13:54:50;3.43;;;2.20;;
76612;SDS011;65507;48.454;-2.058;2023-04-25T13:57:17;4.57;;;2.53;;
76612;SDS011;65507;48.454;-2.058;2023-04-25T13:59:43;2.93;;;2.20;;
76612;SDS011;65507;48.454;-2.058;2023-04-25T14:02:08;5.70;;;3.00;;
76612;SDS011;65507;48.454;-2.058;2023-04-25T14:04:34;3.58;;;2.40;;
76612;SDS011;65507;48.454;-2.058;2023-04-25T14:07:00;3.35;;;2.10;;
76612;SDS011;65507;48.454;-2.058;2023-04-25T14:09:27;7.60;;;2.72;;
76612;SDS011;65507;48.454;-2.058;2023-04-25T14:11:54;4.63;;;2.45;;
76612;SDS011;65507;48.454;-2.058;2023-04-25T14:14:20;2.92;;;2.15;;
76612;SDS011;65507;48.454;-2.058;2023-04-25T14:16:47;4.32;;;2.20;;
76612;SDS011;65507;48.454;-2.058;2023-04-25T14:19:16;5.22;;;2.20;;
76612;SDS011;65507;48.454;-2.058;2023-04-25T14:21:43;3.42;;;2.13;;
76612;SDS011;65507;48.454;-2.058;2023-04-25T14:24:09;4.70;;;2.40;;
76612;SDS011;65507;48.454;-2.058;2023-04-25T14:26:35;6.82;;;2.40;;
76612;SDS011;65507;48.454;-2.058;2023-04-25T14:29:02;3.55;;;2.13;;
76612;SDS011;65507;48.454;-2.058;2023-04-25T14:31:31;5.60;;;2.47;;
76612;SDS011;65507;48.454;-2.058;2023-04-25T14:33:58;5.88;;;2.53;;
76612;SDS011;65507;48.454;-2.058;2023-04-25T14:36:23;7.55;;;2.88;;
76612;SDS011;65507;48.454;-2.058;2023-04-25T14:38:51;5.93;;;2.35;;
76612;SDS011;65507;48.454;-2.058;2023-04-25T14:41:17;4.60;;;2.38;;
76612;SDS011;65507;48.454;-2.058;2023-04-25T14:43:43;5.10;;;2.50;;
76612;SDS011;65507;48.454;-2.058;2023-04-25T14:46:10;4.45;;;2.13;;
76612;SDS011;65507;48.454;-2.058;2023-04-25T14:48:36;3.67;;;2.42;;